Time;durP1;ratioP1;P1;durP2;ratioP2;P2;SDS_P1;SDS_P2;PMS_P1;PMS_P2;Temp;Humidity;BMP_temperature;BMP_pressure;BME280_temperature;BME280_humidity;BME280_pressure;Samples;Min_cycle;Max_cycle;Signal;HPM_P1;HPM_P2
2021/07/07 00:00:55;;;;;;;1.25;0.85;;;20.80;99.90;;;;;;5053103;28;20044;-59
2021/07/07 00:03:21;;;;;;;0.80;0.77;;;20.80;99.90;;;;;;5035604;28;20515;-59
2021/07/07 00:05:47;;;;;;;2.20;1.25;;;20.80;99.90;;;;;;5032160;28;20029;-59
2021/07/07 00:08:12;;;;;;;1.10;0.90;;;20.70;99.90;;;;;;5033459;28;20049;-59
2021/07/07 00:10:38;;;;;;;1.52;0.80;;;20.70;99.90;;;;;;5032873;28;20057;-59
2021/07/07 00:13:04;;;;;;;1.38;0.80;;;20.70;99.90;;;;;;5032665;28;20093;-59
2021/07/07 00:15:32;;;;;;;2.47;0.85;;;20.60;99.90;;;;;;5033152;28;20021;-59
2021/07/07 00:18:02;;;;;;;0.70;0.70;;;20.60;99.90;;;;;;5033083;28;20425;-59
2021/07/07 00:20:34;;;;;;;1.13;0.80;;;20.60;99.90;;;;;;5032978;28;20026;-59
2021/07/07 00:23:00;;;;;;;1.08;0.80;;;20.50;99.90;;;;;;5033672;28;20040;-59
2021/07/07 00:25:25;;;;;;;0.80;0.80;;;20.50;99.90;;;;;;5031974;28;20056;-59
2021/07/07 00:27:51;;;;;;;0.95;0.90;;;20.40;99.90;;;;;;5031606;28;20453;-59
2021/07/07 00:30:16;;;;;;;1.25;0.98;;;20.40;99.90;;;;;;5031813;28;20025;-59
2021/07/07 00:32:42;;;;;;;0.80;0.80;;;20.30;99.90;;;;;;5032438;28;20025;-59
2021/07/07 00:35:08;;;;;;;1.48;0.60;;;20.30;99.90;;;;;;5032850;28;20040;-59
2021/07/07 00:37:33;;;;;;;1.05;0.60;;;20.20;99.90;;;;;;5032502;28;20076;-59
2021/07/07 00:39:59;;;;;;;0.65;0.65;;;20.20;99.90;;;;;;5032636;28;20476;-58
2021/07/07 00:42:24;;;;;;;1.00;0.88;;;20.20;99.90;;;;;;5031306;28;20026;-59
2021/07/07 00:44:50;;;;;;;0.68;0.68;;;20.20;99.90;;;;;;5032748;28;20033;-59
2021/07/07 00:47:15;;;;;;;3.13;1.00;;;20.10;99.90;;;;;;5032384;28;20358;-59
2021/07/07 00:49:41;;;;;;;5.18;1.00;;;20.00;99.90;;;;;;5032530;28;20037;-59
2021/07/07 00:52:08;;;;;;;2.97;1.02;;;19.90;99.90;;;;;;5032128;28;20079;-59
2021/07/07 00:54:34;;;;;;;1.58;0.93;;;19.90;99.90;;;;;;5032501;28;20025;-59
2021/07/07 00:57:00;;;;;;;0.95;0.80;;;19.90;99.90;;;;;;5031276;28;20056;-59
2021/07/07 00:59:27;;;;;;;1.80;0.73;;;19.80;99.90;;;;;;5032511;28;20143;-59
2021/07/07 01:01:54;;;;;;;2.47;0.88;;;19.80;99.90;;;;;;5031934;28;20517;-59
2021/07/07 01:04:20;;;;;;;1.42;0.77;;;19.70;99.90;;;;;;5032261;28;20037;-59
2021/07/07 01:06:46;;;;;;;1.10;1.00;;;19.70;99.90;;;;;;5032042;28;20095;-59
2021/07/07 01:09:11;;;;;;;1.35;1.10;;;19.70;99.90;;;;;;5032180;28;20092;-59
2021/07/07 01:11:38;;;;;;;1.15;0.88;;;19.60;99.90;;;;;;5031009;28;20029;-59
2021/07/07 01:14:04;;;;;;;0.70;0.70;;;19.70;99.90;;;;;;5031784;28;20021;-59
2021/07/07 01:16:30;;;;;;;1.38;0.90;;;19.60;99.90;;;;;;5033031;28;20431;-59
2021/07/07 01:18:57;;;;;;;1.08;0.98;;;19.60;99.90;;;;;;5033184;28;20021;-59
2021/07/07 01:21:23;;;;;;;1.00;0.90;;;19.60;99.90;;;;;;5032936;28;20040;-59
2021/07/07 01:23:50;;;;;;;1.20;1.10;;;19.60;99.90;;;;;;5032951;28;20109;-59
2021/07/07 01:26:15;;;;;;;1.30;1.05;;;19.50;99.90;;;;;;5030697;28;20032;-58
2021/07/07 01:28:41;;;;;;;0.93;0.85;;;19.50;99.90;;;;;;5032942;28;20030;-59
2021/07/07 01:31:06;;;;;;;1.10;0.80;;;19.50;99.90;;;;;;5032834;28;20026;-59
2021/07/07 01:33:32;;;;;;;1.77;1.00;;;19.50;99.90;;;;;;5032682;28;20504;-59
2021/07/07 01:35:59;;;;;;;0.98;0.85;;;19.40;99.90;;;;;;5032690;28;20354;-59
2021/07/07 01:38:24;;;;;;;1.83;1.10;;;19.40;99.90;;;;;;5032364;28;20481;-59
2021/07/07 01:40:50;;;;;;;3.47;0.90;;;19.40;99.90;;;;;;5031819;28;20060;-59
2021/07/07 01:43:16;;;;;;;1.00;0.90;;;19.40;99.90;;;;;;5032684;28;20033;-59
2021/07/07 01:45:41;;;;;;;2.67;0.85;;;19.30;99.90;;;;;;5032607;28;20112;-59
2021/07/07 01:48:07;;;;;;;1.75;1.00;;;19.30;99.90;;;;;;5031360;28;20040;-59
2021/07/07 01:50:32;;;;;;;1.83;0.73;;;19.30;99.90;;;;;;5032521;28;20045;-59
2021/07/07 01:52:58;;;;;;;3.42;1.00;;;19.20;99.90;;;;;;5032282;28;20033;-59
2021/07/07 01:55:27;;;;;;;1.10;0.82;;;19.20;99.90;;;;;;5032600;28;20496;-59
2021/07/07 01:57:53;;;;;;;2.28;0.85;;;19.20;99.90;;;;;;5031409;28;20559;-59
2021/07/07 02:00:26;;;;;;;1.00;0.82;;;19.20;99.90;;;;;;5032663;28;20034;-59
2021/07/07 02:02:53;;;;;;;1.13;0.93;;;19.20;99.90;;;;;;5032180;28;20046;-59
2021/07/07 02:05:23;;;;;;;0.93;0.75;;;19.20;99.90;;;;;;5032361;28;20392;-59
2021/07/07 02:07:48;;;;;;;1.27;1.00;;;19.10;99.90;;;;;;5030949;28;20079;-59
2021/07/07 02:10:15;;;;;;;0.82;0.80;;;19.10;99.90;;;;;;5032323;28;20068;-59
2021/07/07 02:12:40;;;;;;;1.23;1.10;;;19.00;99.90;;;;;;5030079;28;20033;-59
2021/07/07 02:15:12;;;;;;;1.88;0.90;;;19.10;99.90;;;;;;5032508;28;20021;-59
2021/07/07 02:17:38;;;;;;;1.55;0.80;;;19.00;99.90;;;;;;5030909;28;20026;-59
2021/07/07 02:20:07;;;;;;;2.08;0.80;;;19.00;99.90;;;;;;5030888;28;20550;-59
2021/07/07 02:22:33;;;;;;;2.20;0.93;;;19.00;99.90;;;;;;5032275;28;20030;-59
2021/07/07 02:24:58;;;;;;;1.65;1.25;;;19.00;99.90;;;;;;5032332;28;20033;-59
2021/07/07 02:27:24;;;;;;;1.25;1.05;;;18.90;99.90;;;;;;5029992;28;20028;-59
2021/07/07 02:29:50;;;;;;;1.70;1.00;;;18.90;99.90;;;;;;5032028;28;20485;-59
2021/07/07 02:32:15;;;;;;;5.38;1.58;;;18.80;99.90;;;;;;5032150;28;20101;-59
2021/07/07 02:34:41;;;;;;;1.33;0.93;;;18.80;99.90;;;;;;5031915;28;20021;-59
2021/07/07 02:37:06;;;;;;;2.08;1.20;;;18.70;99.90;;;;;;5032048;28;20013;-59
2021/07/07 02:39:32;;;;;;;2.72;1.40;;;18.70;99.90;;;;;;5032241;28;20037;-59
2021/07/07 02:41:57;;;;;;;1.92;1.35;;;18.70;99.90;;;;;;5031098;28;20520;-59
2021/07/07 02:44:23;;;;;;;1.98;1.38;;;18.70;99.90;;;;;;5032211;28;20033;-59
2021/07/07 02:46:48;;;;;;;1.23;0.98;;;18.60;99.90;;;;;;5031731;28;20093;-59
2021/07/07 02:49:13;;;;;;;2.55;1.05;;;18.60;99.90;;;;;;5033035;28;20025;-59
2021/07/07 02:51:39;;;;;;;3.15;1.60;;;18.60;99.90;;;;;;5035693;28;20389;-59
2021/07/07 02:54:04;;;;;;;2.85;1.25;;;18.60;99.90;;;;;;5035609;28;20477;-59
2021/07/07 02:56:30;;;;;;;3.85;1.67;;;18.60;99.90;;;;;;5034944;28;20626;-59
2021/07/07 02:58:55;;;;;;;1.30;1.13;;;18.60;99.90;;;;;;5035508;28;20104;-59
2021/07/07 03:01:21;;;;;;;2.45;1.40;;;18.60;99.90;;;;;;5035583;28;20384;-58
2021/07/07 03:03:47;;;;;;;3.05;1.60;;;18.60;99.90;;;;;;5035263;28;20041;-59
2021/07/07 03:06:12;;;;;;;2.33;1.52;;;18.60;99.90;;;;;;5035307;28;20381;-59
2021/07/07 03:08:43;;;;;;;4.03;1.60;;;18.50;99.90;;;;;;5035443;28;20097;-58
2021/07/07 03:11:09;;;;;;;1.80;1.70;;;18.50;99.90;;;;;;5033217;28;20488;-59
2021/07/07 03:13:35;;;;;;;2.92;1.65;;;18.60;99.90;;;;;;5035423;28;20075;-59
2021/07/07 03:16:02;;;;;;;1.73;1.60;;;18.50;99.90;;;;;;5035419;28;20021;-59
2021/07/07 03:18:28;;;;;;;3.20;1.67;;;18.50;99.90;;;;;;5033882;28;20033;-59
2021/07/07 03:20:54;;;;;;;1.95;1.33;;;18.50;99.90;;;;;;5035104;28;20034;-59
2021/07/07 03:23:22;;;;;;;1.58;1.30;;;18.50;99.90;;;;;;5033946;28;20384;-59
2021/07/07 03:25:49;;;;;;;1.80;1.55;;;18.40;99.90;;;;;;5034222;28;20036;-58
2021/07/07 03:28:15;;;;;;;1.60;1.35;;;18.40;99.90;;;;;;5035098;28;20496;-58
2021/07/07 03:30:41;;;;;;;2.90;1.88;;;18.40;99.90;;;;;;5033745;28;20029;-59
2021/07/07 03:33:07;;;;;;;1.85;1.60;;;18.40;99.90;;;;;;5034909;28;20030;-59
2021/07/07 03:35:32;;;;;;;3.45;1.75;;;18.40;99.90;;;;;;5034888;28;20024;-59
2021/07/07 03:37:58;;;;;;;4.45;1.60;;;18.40;99.90;;;;;;5034916;28;20129;-59
2021/07/07 03:40:25;;;;;;;1.95;1.63;;;18.30;99.90;;;;;;5033745;28;20029;-59
2021/07/07 03:42:51;;;;;;;2.75;1.48;;;18.30;99.90;;;;;;5033869;28;20027;-59
2021/07/07 03:45:18;;;;;;;1.70;1.33;;;18.30;99.90;;;;;;5034936;28;20112;-56
2021/07/07 03:47:44;;;;;;;1.33;1.23;;;18.20;99.90;;;;;;5033212;28;20029;-59
2021/07/07 03:50:11;;;;;;;3.35;1.52;;;18.20;99.90;;;;;;5034630;28;20443;-59
2021/07/07 03:52:36;;;;;;;2.28;1.70;;;18.30;99.90;;;;;;5034471;28;20025;-59
2021/07/07 03:55:07;;;;;;;3.58;1.73;;;18.30;99.90;;;;;;5033383;28;20072;-59
2021/07/07 03:57:33;;;;;;;4.70;2.33;;;18.40;99.90;;;;;;5033594;28;20068;-59
2021/07/07 03:59:59;;;;;;;3.28;2.00;;;18.40;99.90;;;;;;5034293;28;20061;-59
2021/07/07 04:02:24;;;;;;;4.90;2.20;;;18.30;99.90;;;;;;5034134;28;20156;-59
2021/07/07 04:04:50;;;;;;;2.92;2.05;;;18.30;99.90;;;;;;5034438;28;20075;-59
2021/07/07 04:07:15;;;;;;;5.13;2.08;;;18.30;99.90;;;;;;5034283;28;20143;-60
2021/07/07 04:09:41;;;;;;;1.88;1.75;;;18.20;99.90;;;;;;5034315;28;20030;-59
2021/07/07 04:12:06;;;;;;;1.70;1.60;;;18.20;99.90;;;;;;5033420;28;20447;-59
2021/07/07 04:14:32;;;;;;;1.80;1.42;;;18.30;99.90;;;;;;5034143;28;20022;-59
2021/07/07 04:16:58;;;;;;;3.00;1.67;;;18.40;99.90;;;;;;5034192;28;20030;-59
2021/07/07 04:19:25;;;;;;;2.58;1.60;;;18.50;99.90;;;;;;5034247;28;20303;-59
2021/07/07 04:21:51;;;;;;;2.35;2.15;;;18.50;99.90;;;;;;5034018;28;20033;-59
2021/07/07 04:24:18;;;;;;;5.18;1.52;;;18.50;99.90;;;;;;5034075;28;20104;-59
2021/07/07 04:26:44;;;;;;;3.03;1.92;;;18.50;99.90;;;;;;5033186;28;20032;-59
2021/07/07 04:29:09;;;;;;;2.90;1.92;;;18.50;99.90;;;;;;5033778;28;20101;-59
2021/07/07 04:31:35;;;;;;;2.03;1.58;;;18.50;99.90;;;;;;5033757;28;20113;-59
2021/07/07 04:34:02;;;;;;;3.97;2.13;;;18.50;99.90;;;;;;5033733;28;20021;-59
2021/07/07 04:36:27;;;;;;;4.07;1.70;;;18.50;99.90;;;;;;5033888;28;20504;-59
2021/07/07 04:38:53;;;;;;;2.15;1.65;;;18.60;99.90;;;;;;5032309;28;20026;-59
2021/07/07 04:41:19;;;;;;;2.20;1.83;;;18.50;99.90;;;;;;5032912;28;20462;-59
2021/07/07 04:43:44;;;;;;;3.88;1.63;;;18.60;99.90;;;;;;5033685;28;20028;-58
2021/07/07 04:46:10;;;;;;;3.40;1.98;;;18.60;99.90;;;;;;5033586;28;20422;-59
2021/07/07 04:48:35;;;;;;;3.42;1.70;;;18.60;99.90;;;;;;5033578;28;20070;-59
2021/07/07 04:51:01;;;;;;;2.72;2.13;;;18.60;99.90;;;;;;5032149;28;20069;-59
2021/07/07 04:53:27;;;;;;;1.88;1.67;;;18.60;99.90;;;;;;5033423;28;20048;-59
2021/07/07 04:55:52;;;;;;;2.47;1.83;;;18.60;99.90;;;;;;5032542;28;20401;-59
2021/07/07 04:58:18;;;;;;;1.75;1.50;;;18.60;99.90;;;;;;5033354;28;20018;-60
2021/07/07 05:00:43;;;;;;;5.40;1.55;;;18.60;99.90;;;;;;5033364;28;20022;-59
2021/07/07 05:03:09;;;;;;;2.90;1.90;;;18.60;99.90;;;;;;5033034;28;20061;-59
2021/07/07 05:05:34;;;;;;;4.03;2.58;;;18.60;99.90;;;;;;5033391;28;20025;-59
2021/07/07 05:08:00;;;;;;;2.13;1.90;;;18.50;99.90;;;;;;5033039;28;20066;-59
2021/07/07 05:10:26;;;;;;;1.95;1.75;;;18.50;99.90;;;;;;5033267;28;20468;-50
2021/07/07 05:12:52;;;;;;;3.83;1.92;;;18.50;99.90;;;;;;5031520;28;20413;-49
2021/07/07 05:15:17;;;;;;;4.80;1.95;;;18.60;99.90;;;;;;5033075;28;20022;-55
2021/07/07 05:17:44;;;;;;;2.53;1.50;;;18.60;99.90;;;;;;5034340;28;20488;-51
2021/07/07 05:20:11;;;;;;;1.73;1.40;;;18.70;99.90;;;;;;5027472;28;20071;-50
2021/07/07 05:22:36;;;;;;;2.45;1.77;;;18.70;99.90;;;;;;5032690;28;20044;-50
2021/07/07 05:25:03;;;;;;;1.92;1.73;;;18.80;99.90;;;;;;5032251;28;20443;-52
2021/07/07 05:27:28;;;;;;;3.80;1.55;;;18.80;99.90;;;;;;5031521;28;20116;-51
2021/07/07 05:29:54;;;;;;;1.63;1.52;;;18.80;99.90;;;;;;5032423;28;20120;-49
2021/07/07 05:32:22;;;;;;;4.55;2.08;;;18.90;99.90;;;;;;5029858;28;20048;-51
2021/07/07 05:34:49;;;;;;;1.73;1.63;;;18.90;99.90;;;;;;5032628;28;20021;-52
2021/07/07 05:37:20;;;;;;;4.22;1.77;;;18.90;99.90;;;;;;5032457;28;20531;-53
2021/07/07 05:39:47;;;;;;;2.05;1.88;;;19.00;99.90;;;;;;5032608;28;20033;-50
2021/07/07 05:42:15;;;;;;;4.03;1.92;;;19.10;99.90;;;;;;5031497;28;20026;-51
2021/07/07 05:44:40;;;;;;;2.30;2.10;;;19.10;99.90;;;;;;5032622;28;20536;-52
2021/07/07 05:47:06;;;;;;;2.80;1.88;;;19.00;99.90;;;;;;5032555;28;20112;-51
2021/07/07 05:49:31;;;;;;;3.30;1.98;;;19.10;99.90;;;;;;5032481;28;20112;-47
2021/07/07 05:51:57;;;;;;;4.35;2.10;;;19.00;99.90;;;;;;5032627;28;20469;-51
2021/07/07 05:54:22;;;;;;;4.43;1.92;;;19.10;99.90;;;;;;5032354;28;20025;-54
2021/07/07 05:56:48;;;;;;;2.08;1.88;;;19.10;99.90;;;;;;5031674;28;20059;-53
2021/07/07 05:59:14;;;;;;;2.80;1.98;;;19.30;99.90;;;;;;5030986;28;20033;-50
2021/07/07 06:01:39;;;;;;;3.30;2.15;;;19.30;99.90;;;;;;5032633;28;20040;-50
2021/07/07 06:04:05;;;;;;;2.00;1.80;;;19.30;99.90;;;;;;5051305;28;20028;-51
2021/07/07 06:06:30;;;;;;;2.42;2.03;;;19.40;99.90;;;;;;5052074;28;20055;-52
2021/07/07 06:08:56;;;;;;;3.92;2.35;;;19.40;99.90;;;;;;5052111;28;20044;-52
2021/07/07 06:11:21;;;;;;;4.20;2.17;;;19.40;99.90;;;;;;5051204;28;20029;-47
2021/07/07 06:13:47;;;;;;;5.70;2.10;;;19.40;99.90;;;;;;5052167;28;20025;-50
2021/07/07 06:16:12;;;;;;;2.00;1.60;;;19.40;99.90;;;;;;5051004;28;20029;-51
2021/07/07 06:18:38;;;;;;;2.55;1.80;;;19.30;99.90;;;;;;5052175;28;20021;-52
2021/07/07 06:21:03;;;;;;;3.58;1.60;;;19.30;99.90;;;;;;5052120;28;20033;-47
2021/07/07 06:23:29;;;;;;;2.03;1.60;;;19.40;99.90;;;;;;5052221;28;20033;-49
2021/07/07 06:25:54;;;;;;;4.07;2.20;;;19.40;99.90;;;;;;5055095;28;20039;-52
2021/07/07 06:28:20;;;;;;;1.92;1.67;;;19.40;99.90;;;;;;5046630;28;20072;-54
2021/07/07 06:30:46;;;;;;;3.58;2.22;;;19.50;99.90;;;;;;5036207;28;20033;-49
2021/07/07 06:33:13;;;;;;;1.95;1.85;;;19.50;99.90;;;;;;5035957;28;20029;-51
2021/07/07 06:35:41;;;;;;;2.47;1.67;;;19.50;99.90;;;;;;5036081;28;20101;-50
2021/07/07 06:38:06;;;;;;;3.30;2.55;;;19.50;99.90;;;;;;5031613;28;20029;-48
2021/07/07 06:40:32;;;;;;;2.50;1.60;;;19.50;99.90;;;;;;5036104;28;20071;-54
2021/07/07 06:42:58;;;;;;;3.70;2.00;;;19.40;99.90;;;;;;5035759;28;20040;-50
2021/07/07 06:45:25;;;;;;;2.58;2.08;;;19.40;99.90;;;;;;5035687;28;20370;-48
2021/07/07 06:47:51;;;;;;;3.38;1.70;;;19.50;99.90;;;;;;5035784;28;20481;-51
2021/07/07 06:50:18;;;;;;;4.63;1.58;;;19.50;99.90;;;;;;5035336;28;20025;-49
2021/07/07 06:52:43;;;;;;;1.92;1.42;;;19.50;99.90;;;;;;5035561;28;20026;-50
2021/07/07 06:55:09;;;;;;;2.83;1.40;;;19.50;99.90;;;;;;5034092;28;20026;-49
2021/07/07 06:57:36;;;;;;;2.40;1.10;;;19.40;99.90;;;;;;5034560;28;20053;-49
2021/07/07 07:00:06;;;;;;;1.90;1.15;;;19.50;99.90;;;;;;5036583;28;20033;-51
2021/07/07 07:02:32;;;;;;;2.53;1.35;;;19.40;99.90;;;;;;5040738;28;20401;-50
2021/07/07 07:04:59;;;;;;;5.63;1.50;;;19.40;99.90;;;;;;5036809;28;20043;-52
2021/07/07 07:07:26;;;;;;;1.10;0.95;;;19.40;99.90;;;;;;5053711;28;20039;-48
2021/07/07 07:09:52;;;;;;;1.73;1.40;;;19.40;99.90;;;;;;5053020;28;20037;-49
2021/07/07 07:12:18;;;;;;;1.52;1.13;;;19.40;99.90;;;;;;5054078;28;20492;-54
2021/07/07 07:14:43;;;;;;;2.55;1.38;;;19.40;99.90;;;;;;5050733;28;20033;-52
2021/07/07 07:17:09;;;;;;;3.15;1.50;;;19.30;99.90;;;;;;5055002;28;20075;-50
2021/07/07 07:19:35;;;;;;;2.08;1.05;;;19.30;99.90;;;;;;5055016;28;20017;-47
2021/07/07 07:22:01;;;;;;;1.73;1.15;;;19.30;99.90;;;;;;5055083;28;20033;-49
2021/07/07 07:24:30;;;;;;;2.58;1.10;;;19.30;99.90;;;;;;5054985;28;20111;-49
2021/07/07 07:26:57;;;;;;;2.30;1.35;;;19.40;99.90;;;;;;5054568;28;20096;-50
2021/07/07 07:29:22;;;;;;;2.17;1.48;;;19.40;99.90;;;;;;5054543;28;20317;-50
2021/07/07 07:31:48;;;;;;;3.85;1.50;;;19.40;99.90;;;;;;5054886;28;20037;-52
2021/07/07 07:34:14;;;;;;;3.42;1.25;;;19.40;99.90;;;;;;5054678;28;20028;-50
2021/07/07 07:36:39;;;;;;;1.45;1.10;;;19.40;99.90;;;;;;5040879;28;20096;-49
2021/07/07 07:39:10;;;;;;;2.05;1.45;;;19.30;99.90;;;;;;5034526;28;20022;-51
2021/07/07 07:41:38;;;;;;;2.80;1.30;;;19.30;99.90;;;;;;5033814;28;20115;-49
2021/07/07 07:44:07;;;;;;;3.70;1.52;;;19.30;99.90;;;;;;5034639;28;20473;-52
2021/07/07 07:46:33;;;;;;;2.53;1.33;;;19.30;99.90;;;;;;5025992;28;20033;-53
2021/07/07 07:49:01;;;;;;;1.85;1.20;;;19.40;99.90;;;;;;5031166;28;20084;-50
2021/07/07 07:51:30;;;;;;;2.08;1.15;;;19.50;99.90;;;;;;5033683;28;20025;-51
2021/07/07 07:53:56;;;;;;;2.92;1.30;;;19.50;99.90;;;;;;5033959;28;20112;-48
2021/07/07 07:56:22;;;;;;;3.75;1.75;;;19.60;99.90;;;;;;5032970;28;20099;-53
2021/07/07 07:58:48;;;;;;;1.63;1.25;;;19.70;99.90;;;;;;5033580;28;20053;-52
2021/07/07 08:01:13;;;;;;;1.70;1.48;;;19.70;99.90;;;;;;5033365;28;20088;-51
2021/07/07 08:03:39;;;;;;;2.10;1.33;;;19.80;99.90;;;;;;5039411;28;20056;-53
2021/07/07 08:06:05;;;;;;;3.15;1.58;;;19.80;99.90;;;;;;5033400;28;20059;-51
2021/07/07 08:08:31;;;;;;;1.92;1.25;;;19.80;99.90;;;;;;5033002;28;20025;-53
2021/07/07 08:10:57;;;;;;;2.90;1.48;;;19.80;99.90;;;;;;5032003;28;20029;-48
2021/07/07 08:13:22;;;;;;;5.15;2.15;;;19.90;99.90;;;;;;5033112;28;20101;-52
2021/07/07 08:15:48;;;;;;;2.72;1.50;;;19.90;99.90;;;;;;5033493;28;20026;-51
2021/07/07 08:18:13;;;;;;;3.95;1.83;;;19.90;99.90;;;;;;5032877;28;20033;-53
2021/07/07 08:20:39;;;;;;;5.70;1.42;;;20.00;99.90;;;;;;5032538;28;20523;-54
2021/07/07 08:23:05;;;;;;;2.10;1.48;;;20.20;99.90;;;;;;5033749;28;20466;-51
2021/07/07 08:25:31;;;;;;;3.88;1.98;;;20.30;99.90;;;;;;5032643;28;20041;-50
2021/07/07 08:27:56;;;;;;;3.05;1.73;;;20.40;99.90;;;;;;5033621;28;20530;-49
2021/07/07 08:30:23;;;;;;;1.75;1.40;;;20.50;99.90;;;;;;5033013;28;20033;-54
2021/07/07 08:32:48;;;;;;;2.45;1.10;;;20.50;99.90;;;;;;5033398;28;20078;-51
2021/07/07 08:35:15;;;;;;;1.30;1.20;;;20.60;99.90;;;;;;5032983;28;20065;-51
2021/07/07 08:37:42;;;;;;;3.20;1.27;;;20.60;99.90;;;;;;5033394;28;20646;-51
2021/07/07 08:40:09;;;;;;;2.35;1.45;;;20.60;99.90;;;;;;5033397;28;20052;-49
2021/07/07 08:42:41;;;;;;;3.58;1.40;;;20.50;99.90;;;;;;5032088;28;20041;-51
2021/07/07 08:45:09;;;;;;;2.05;1.10;;;20.50;99.90;;;;;;5033460;28;20017;-50
2021/07/07 08:47:41;;;;;;;3.33;1.30;;;20.40;99.90;;;;;;5031741;28;20021;-51
2021/07/07 08:50:10;;;;;;;3.03;1.42;;;20.40;99.90;;;;;;5029655;28;20025;-49
2021/07/07 08:52:38;;;;;;;1.58;1.40;;;20.30;99.90;;;;;;5031495;28;20033;-55
2021/07/07 08:55:07;;;;;;;1.50;1.40;;;20.40;99.90;;;;;;5035928;28;20021;-50
2021/07/07 08:57:41;;;;;;;3.88;1.70;;;20.40;99.90;;;;;;5031576;28;20026;-52
2021/07/07 09:00:34;;;;;;;3.20;1.58;;;20.40;99.90;;;;;;5032474;28;20029;-52
2021/07/07 09:03:08;;;;;;;5.25;1.40;;;20.40;99.90;;;;;;5033537;28;20292;-52
2021/07/07 09:05:47;;;;;;;1.40;1.30;;;20.40;99.90;;;;;;5032362;28;20033;-48
2021/07/07 09:08:12;;;;;;;1.80;1.33;;;20.40;99.90;;;;;;5033006;28;20464;-52
2021/07/07 09:10:38;;;;;;;2.30;1.52;;;20.50;99.90;;;;;;5031033;28;20037;-51
2021/07/07 09:13:11;;;;;;;1.85;1.75;;;20.50;99.90;;;;;;5032776;28;20017;-50
2021/07/07 09:15:37;;;;;;;1.63;1.20;;;20.50;99.90;;;;;;5032501;28;20091;-50
2021/07/07 09:18:03;;;;;;;3.03;1.38;;;20.60;99.90;;;;;;5032787;28;20025;-50
2021/07/07 09:20:36;;;;;;;2.75;1.55;;;20.60;99.90;;;;;;5031322;28;20051;-50
2021/07/07 09:23:23;;;;;;;3.63;1.67;;;20.70;99.90;;;;;;5032584;28;20037;-53
2021/07/07 09:25:58;;;;;;;2.55;1.48;;;20.70;99.90;;;;;;5031865;28;20027;-49
2021/07/07 09:28:33;;;;;;;1.60;1.50;;;20.70;99.90;;;;;;5034183;28;20159;-51
2021/07/07 09:31:02;;;;;;;2.13;1.25;;;20.60;99.90;;;;;;5032643;28;20029;-49
2021/07/07 09:33:39;;;;;;;2.17;1.38;;;20.50;99.90;;;;;;5031419;28;20113;-49
2021/07/07 09:36:23;;;;;;;2.08;1.02;;;20.30;99.90;;;;;;5029014;28;20026;-50
2021/07/07 09:38:51;;;;;;;2.63;1.40;;;20.20;99.90;;;;;;5032039;28;20041;-51
2021/07/07 09:41:19;;;;;;;2.03;1.30;;;20.10;99.90;;;;;;5031527;28;20072;-51
2021/07/07 09:43:51;;;;;;;2.50;1.35;;;20.10;99.90;;;;;;5032623;28;20377;-51
2021/07/07 09:46:18;;;;;;;1.55;1.05;;;20.00;99.90;;;;;;5032485;28;20079;-53
2021/07/07 09:48:45;;;;;;;2.22;1.42;;;19.90;99.90;;;;;;5032001;28;20025;-54
2021/07/07 09:51:10;;;;;;;2.25;1.27;;;19.80;99.90;;;;;;5032441;28;20031;-50
2021/07/07 09:53:35;;;;;;;1.92;1.00;;;19.70;99.90;;;;;;5032352;28;20021;-54
2021/07/07 09:56:02;;;;;;;1.25;1.02;;;19.70;99.90;;;;;;5031577;28;20025;-56
2021/07/07 09:58:29;;;;;;;3.08;1.23;;;19.70;99.90;;;;;;5030974;28;20488;-52
2021/07/07 10:00:54;;;;;;;2.47;1.17;;;19.70;99.90;;;;;;5032131;28;20044;-50
2021/07/07 10:03:20;;;;;;;1.20;1.10;;;19.70;99.90;;;;;;5046314;28;20044;-55
2021/07/07 10:05:47;;;;;;;2.88;1.20;;;19.80;99.90;;;;;;5052254;28;20074;-54
2021/07/07 10:08:13;;;;;;;2.10;1.27;;;19.80;99.90;;;;;;5052471;28;20029;-51
2021/07/07 10:10:41;;;;;;;2.75;1.17;;;19.90;99.90;;;;;;5051143;28;20497;-52
2021/07/07 10:13:11;;;;;;;3.15;1.50;;;20.00;99.90;;;;;;5036245;28;20085;-54
2021/07/07 10:15:37;;;;;;;2.13;1.60;;;20.10;99.90;;;;;;5031926;28;20029;-54
2021/07/07 10:18:04;;;;;;;3.85;1.58;;;20.20;99.90;;;;;;5032392;28;20018;-55
2021/07/07 10:20:30;;;;;;;2.83;1.42;;;20.30;99.90;;;;;;5032211;28;20036;-51
2021/07/07 10:22:58;;;;;;;2.35;1.35;;;20.50;99.90;;;;;;5032398;28;20034;-50
2021/07/07 10:25:27;;;;;;;2.13;1.60;;;20.50;99.90;;;;;;5031434;28;20404;-55
2021/07/07 10:28:01;;;;;;;1.48;1.10;;;20.60;99.90;;;;;;5032462;28;20053;-54
2021/07/07 10:30:50;;;;;;;2.70;1.60;;;20.60;99.90;;;;;;5032001;28;20033;-51
2021/07/07 10:33:17;;;;;;;2.75;1.58;;;20.50;99.90;;;;;;5028053;28;20029;-51
2021/07/07 10:35:43;;;;;;;2.28;1.45;;;20.40;99.90;;;;;;5031779;28;20025;-53
2021/07/07 10:38:12;;;;;;;1.42;1.27;;;20.30;99.90;;;;;;5032135;28;20029;-50
2021/07/07 10:40:40;;;;;;;3.72;1.50;;;20.20;99.90;;;;;;5030779;28;20092;-52
2021/07/07 10:43:06;;;;;;;3.10;1.20;;;20.10;99.90;;;;;;5031998;28;20034;-53
2021/07/07 10:45:41;;;;;;;4.13;1.40;;;19.90;99.90;;;;;;5031700;28;20369;-51
2021/07/07 10:48:30;;;;;;;2.20;1.20;;;19.80;99.90;;;;;;5031983;28;20109;-54
2021/07/07 10:51:29;;;;;;;2.10;1.25;;;19.70;99.90;;;;;;5031753;28;20283;-52
2021/07/07 10:53:55;;;;;;;3.83;1.33;;;19.70;99.90;;;;;;5027570;28;20494;-54
2021/07/07 10:56:43;;;;;;;1.73;1.27;;;19.60;99.90;;;;;;5030590;28;20034;-56
2021/07/07 10:59:35;;;;;;;1.75;1.27;;;19.60;99.90;;;;;;5031868;28;20080;-48
2021/07/07 11:02:07;;;;;;;1.30;1.08;;;19.60;99.90;;;;;;5035034;28;20127;-55
2021/07/07 11:04:43;;;;;;;1.85;1.00;;;19.60;99.90;;;;;;5051352;28;20380;-51
2021/07/07 11:07:31;;;;;;;2.00;1.30;;;19.50;99.90;;;;;;5051535;28;20037;-51
2021/07/07 11:09:57;;;;;;;1.80;1.35;;;19.50;99.90;;;;;;5051971;28;20052;-50
2021/07/07 11:12:35;;;;;;;1.98;1.40;;;19.40;99.90;;;;;;5054403;28;20021;-47
2021/07/07 11:15:24;;;;;;;3.78;1.50;;;19.50;99.90;;;;;;5055290;28;20032;-50
2021/07/07 11:17:52;;;;;;;2.67;1.33;;;19.50;99.90;;;;;;5054594;28;20610;-51
2021/07/07 11:20:22;;;;;;;3.45;1.60;;;19.50;99.90;;;;;;5054733;28;20477;-50
2021/07/07 11:23:01;;;;;;;2.15;1.38;;;19.40;99.90;;;;;;5054869;28;20029;-49
2021/07/07 11:25:28;;;;;;;2.33;1.35;;;19.50;99.90;;;;;;5054172;28;20158;-54
2021/07/07 11:27:54;;;;;;;2.38;1.45;;;19.50;99.90;;;;;;5031583;28;20022;-55
2021/07/07 11:30:21;;;;;;;4.65;1.42;;;19.50;99.90;;;;;;5034941;28;20377;-55
2021/07/07 11:32:51;;;;;;;1.95;1.58;;;19.50;99.90;;;;;;5034618;28;20037;-49
2021/07/07 11:35:30;;;;;;;2.20;1.30;;;19.50;99.90;;;;;;5034954;28;20025;-53
2021/07/07 11:38:02;;;;;;;3.28;1.50;;;19.60;99.90;;;;;;5034903;28;20018;-51
2021/07/07 11:40:31;;;;;;;3.78;1.33;;;19.60;99.90;;;;;;5033930;28;20026;-51
2021/07/07 11:43:13;;;;;;;2.85;1.30;;;19.80;99.90;;;;;;5034838;28;20595;-54
2021/07/07 11:45:44;;;;;;;2.38;1.20;;;19.90;99.90;;;;;;5034256;28;20049;-51
2021/07/07 11:51:16;;;;;;;1.37;1.20;;;20.10;99.90;;;;;;5034735;28;20037;-50
2021/07/07 11:53:43;;;;;;;;;;;20.20;99.90;;;;;;5034852;28;20021;-49
2021/07/07 11:56:09;;;;;;;;;;;20.40;99.90;;;;;;5034166;28;19905;-49
2021/07/07 11:58:37;;;;;;;;;;;20.50;99.90;;;;;;5035048;28;19905;-50
2021/07/07 12:01:05;;;;;;;1.17;0.90;;;20.60;99.90;;;;;;5034573;28;19909;-50
2021/07/07 12:03:31;;;;;;;0.82;0.80;;;20.70;99.90;;;;;;5034204;28;20493;-54
2021/07/07 12:06:05;;;;;;;1.40;1.30;;;20.90;99.90;;;;;;5034056;28;20053;-55
2021/07/07 12:08:36;;;;;;;1.80;1.10;;;20.90;99.90;;;;;;5034559;28;20025;-52
2021/07/07 12:11:14;;;;;;;1.95;1.00;;;21.00;99.90;;;;;;5033476;28;20049;-50
2021/07/07 12:13:42;;;;;;;1.63;1.15;;;21.10;99.90;;;;;;5034264;28;20048;-50
2021/07/07 12:16:16;;;;;;;1.10;1.00;;;21.10;99.90;;;;;;5034346;28;20072;-52
2021/07/07 12:18:43;;;;;;;3.47;1.30;;;21.30;99.90;;;;;;5033956;28;20204;-50
2021/07/07 12:21:35;;;;;;;1.63;1.05;;;21.50;99.90;;;;;;5034107;28;20063;-49
2021/07/07 12:24:05;;;;;;;1.67;1.38;;;21.70;99.90;;;;;;5034293;28;20062;-52
2021/07/07 12:26:33;;;;;;;1.23;1.10;;;21.90;99.90;;;;;;5033059;28;20033;-53
2021/07/07 12:29:00;;;;;;;1.48;1.00;;;22.10;99.90;;;;;;5034011;28;20365;-50
2021/07/07 12:31:30;;;;;;;2.17;0.98;;;22.10;99.90;;;;;;5030374;28;20021;-50
2021/07/07 12:33:56;;;;;;;1.85;1.10;;;22.10;99.90;;;;;;5033599;28;20025;-49
2021/07/07 12:36:30;;;;;;;3.92;1.15;;;22.20;99.90;;;;;;5033538;28;20025;-54
2021/07/07 12:38:57;;;;;;;2.63;1.23;;;22.20;99.90;;;;;;5033501;28;20029;-51
2021/07/07 12:41:38;;;;;;;1.15;1.00;;;22.30;99.90;;;;;;5032773;28;20027;-51
2021/07/07 12:46:46;;;;;;;1.52;1.10;;;22.50;99.90;;;;;;5033653;28;20049;-51
2021/07/07 12:49:12;;;;;;;0.95;0.90;;;22.60;99.90;;;;;;5033154;28;20477;-49
2021/07/07 12:51:39;;;;;;;2.78;1.20;;;22.70;99.90;;;;;;5033265;28;20042;-49
2021/07/07 12:54:17;;;;;;;0.85;0.73;;;22.80;99.90;;;;;;5033560;28;20026;-53
2021/07/07 12:56:56;;;;;;;1.00;0.80;;;22.90;99.90;;;;;;5032260;28;20037;-50